Time;durP1;ratioP1;P1;durP2;ratioP2;P2;SDS_P1;SDS_P2;PMS_P1;PMS_P2;Temp;Humidity;BMP_temperature;BMP_pressure;BME280_temperature;BME280_humidity;BME280_pressure;Samples;Min_cycle;Max_cycle;Signal;HPM_P1;HPM_P2
2021/05/23 00:00:19;;;;;;;7.72;2.42;;;15.70;55.50;;;;;;4975929;28;20405;-75
2021/05/23 00:02:45;;;;;;;5.13;2.40;;;15.60;55.90;;;;;;4975755;28;20023;-75
2021/05/23 00:05:14;;;;;;;5.38;2.55;;;15.60;55.90;;;;;;4975785;28;20377;-75
2021/05/23 00:07:50;;;;;;;6.35;2.65;;;15.50;56.10;;;;;;4975700;28;20043;-74
2021/05/23 00:10:17;;;;;;;5.18;2.75;;;15.40;56.30;;;;;;4975973;28;20381;-74
2021/05/23 00:12:43;;;;;;;6.57;2.60;;;15.40;56.30;;;;;;4975967;28;20018;-74
2021/05/23 00:15:10;;;;;;;6.78;2.60;;;15.30;56.50;;;;;;4975656;28;20019;-74
2021/05/23 00:17:37;;;;;;;3.10;2.50;;;15.30;56.80;;;;;;4975601;28;20038;-74
2021/05/23 00:20:04;;;;;;;5.88;2.80;;;15.20;56.90;;;;;;5006790;28;20430;-74
2021/05/23 00:22:30;;;;;;;3.20;2.70;;;15.20;57.20;;;;;;4974786;28;20027;-74
2021/05/23 00:24:55;;;;;;;6.72;2.78;;;15.10;57.30;;;;;;4975315;28;20081;-74
2021/05/23 00:27:21;;;;;;;6.10;2.60;;;15.10;57.50;;;;;;4975402;28;20081;-74
2021/05/23 00:29:47;;;;;;;7.53;2.72;;;15.00;57.90;;;;;;4975246;28;20053;-74
2021/05/23 00:32:13;;;;;;;4.30;2.83;;;14.90;58.10;;;;;;4975313;28;20031;-74
2021/05/23 00:34:39;;;;;;;4.18;3.08;;;14.80;58.30;;;;;;4975197;28;20520;-74
2021/05/23 00:37:04;;;;;;;7.85;4.45;;;14.80;58.60;;;;;;5006256;28;20026;-74
2021/05/23 00:39:30;;;;;;;7.95;4.78;;;14.80;58.80;;;;;;4975148;28;20027;-74
2021/05/23 00:41:56;;;;;;;12.35;4.35;;;14.70;59.00;;;;;;4975192;28;20074;-74
2021/05/23 00:44:21;;;;;;;7.88;4.20;;;14.70;59.20;;;;;;4975212;28;20118;-74
2021/05/23 00:46:47;;;;;;;8.30;3.90;;;14.70;59.30;;;;;;4975335;28;20037;-74
2021/05/23 00:49:13;;;;;;;6.80;4.13;;;14.60;59.40;;;;;;4975076;28;20477;-74
2021/05/23 00:51:39;;;;;;;7.13;3.70;;;14.60;59.70;;;;;;4975000;28;20034;-74
2021/05/23 00:54:04;;;;;;;9.00;3.97;;;14.60;59.80;;;;;;4974917;28;20557;-74
2021/05/23 00:56:30;;;;;;;9.73;3.90;;;14.60;60.00;;;;;;4974938;28;20027;-74
2021/05/23 00:58:56;;;;;;;8.80;4.00;;;14.60;60.30;;;;;;4974786;28;20085;-74
2021/05/23 01:01:54;;;;;;;9.82;4.07;;;14.60;60.40;;;;;;4974670;28;20114;-74
2021/05/23 01:04:19;;;;;;;8.48;4.38;;;14.60;60.70;;;;;;4923305;28;20039;-74
2021/05/23 01:06:46;;;;;;;7.53;3.92;;;14.60;60.60;;;;;;4974656;28;20039;-74
2021/05/23 01:09:12;;;;;;;8.05;3.85;;;14.60;60.80;;;;;;4974738;28;20027;-81
2021/05/23 01:11:40;;;;;;;8.25;3.55;;;14.60;60.90;;;;;;4976461;28;20030;-81
2021/05/23 01:14:12;;;;;;;7.00;4.13;;;14.60;61.10;;;;;;4976576;28;20034;-80
2021/05/23 01:16:55;;;;;;;4.13;3.58;;;14.60;61.20;;;;;;4976511;28;20409;-80
2021/05/23 01:19:33;;;;;;;10.13;4.07;;;14.60;61.30;;;;;;4976340;28;20102;-80
2021/05/23 01:22:21;;;;;;;10.75;4.65;;;14.60;61.20;;;;;;4987979;28;20023;-80
2021/05/23 01:25:09;;;;;;;7.43;3.90;;;14.60;61.40;;;;;;4954213;28;20039;-80
2021/05/23 01:27:37;;;;;;;6.88;4.10;;;14.60;61.50;;;;;;4976610;28;20381;-81
2021/05/23 01:30:09;;;;;;;8.20;4.40;;;14.60;61.50;;;;;;4978064;28;20050;-80
2021/05/23 01:32:41;;;;;;;9.80;4.80;;;14.60;61.60;;;;;;4990173;28;20030;-80
2021/05/23 01:35:17;;;;;;;8.45;4.57;;;14.70;61.70;;;;;;4979936;28;20023;-81
2021/05/23 01:37:48;;;;;;;10.15;4.93;;;14.70;61.60;;;;;;4981482;28;20031;-81
2021/05/23 01:40:16;;;;;;;9.70;4.55;;;14.80;61.60;;;;;;4976029;28;20019;-81
2021/05/23 01:42:42;;;;;;;9.50;4.30;;;14.80;61.40;;;;;;4975594;28;20027;-81
2021/05/23 01:45:09;;;;;;;7.07;5.07;;;14.90;61.40;;;;;;4975975;28;20019;-82
2021/05/23 01:47:35;;;;;;;7.53;4.22;;;14.90;61.30;;;;;;4975451;28;20031;-82
2021/05/23 01:50:01;;;;;;;8.57;4.68;;;15.00;61.30;;;;;;4975646;28;20409;-82
2021/05/23 01:52:26;;;;;;;7.60;4.57;;;15.00;61.10;;;;;;4975473;28;20023;-82
2021/05/23 01:54:52;;;;;;;9.38;3.88;;;15.10;61.00;;;;;;4974495;28;20121;-75
2021/05/23 01:57:18;;;;;;;4.90;3.60;;;15.20;60.90;;;;;;4973721;28;20098;-75
2021/05/23 01:59:44;;;;;;;6.88;3.40;;;15.20;60.80;;;;;;4973884;28;20037;-75
2021/05/23 02:02:09;;;;;;;7.68;3.83;;;15.30;60.70;;;;;;4973801;28;20062;-74
2021/05/23 02:04:35;;;;;;;6.57;3.35;;;15.40;60.70;;;;;;4973855;28;20027;-75
2021/05/23 02:07:01;;;;;;;6.50;3.63;;;15.40;60.50;;;;;;4973528;28;20049;-74
2021/05/23 02:09:27;;;;;;;4.18;3.40;;;15.60;60.40;;;;;;4973320;28;20031;-75
2021/05/23 02:11:55;;;;;;;11.32;4.10;;;15.60;60.20;;;;;;4973490;28;20054;-74
2021/05/23 02:14:22;;;;;;;7.93;3.75;;;15.70;60.00;;;;;;5004675;28;20043;-74
2021/05/23 02:16:48;;;;;;;6.28;4.20;;;15.80;60.00;;;;;;4973344;28;20023;-74
2021/05/23 02:19:13;;;;;;;6.97;4.30;;;15.90;60.10;;;;;;4973500;28;20515;-75
2021/05/23 02:21:39;;;;;;;5.65;3.85;;;16.40;60.00;;;;;;4973407;28;20027;-75
2021/05/23 02:24:05;;;;;;;3.92;3.45;;;16.90;59.40;;;;;;4973587;28;20033;-75
2021/05/23 02:26:31;;;;;;;6.93;4.30;;;17.50;59.10;;;;;;4973547;28;20035;-75
2021/05/23 02:28:57;;;;;;;6.57;4.00;;;18.10;57.40;;;;;;4972979;28;20444;-75
2021/05/23 02:31:23;;;;;;;8.35;4.18;;;18.60;56.40;;;;;;4973336;28;20426;-75
2021/05/23 02:33:48;;;;;;;7.88;3.67;;;19.20;55.30;;;;;;4973256;28;20023;-75
2021/05/23 02:36:14;;;;;;;5.22;3.88;;;19.60;54.30;;;;;;5004584;28;20023;-75
2021/05/23 02:38:40;;;;;;;4.80;3.63;;;20.00;53.30;;;;;;4973404;28;20062;-75
2021/05/23 02:41:06;;;;;;;6.13;3.60;;;19.90;52.50;;;;;;4973296;28;20031;-75
2021/05/23 02:43:31;;;;;;;7.22;3.72;;;19.80;52.40;;;;;;4973240;28;20027;-74
2021/05/23 02:46:01;;;;;;;5.43;3.47;;;19.80;52.30;;;;;;4975567;28;20394;-74
2021/05/23 02:48:26;;;;;;;6.85;3.78;;;19.60;52.30;;;;;;4976847;28;20027;-74
2021/05/23 02:50:54;;;;;;;7.63;4.18;;;19.30;52.50;;;;;;5008284;28;20027;-74
2021/05/23 02:53:21;;;;;;;9.43;4.13;;;19.10;52.90;;;;;;4976872;28;20030;-74
2021/05/23 02:55:49;;;;;;;5.90;4.10;;;18.90;53.40;;;;;;4976855;28;20050;-74
2021/05/23 02:58:16;;;;;;;5.32;3.55;;;18.60;53.80;;;;;;4976852;28;20544;-75
2021/05/23 03:00:43;;;;;;;9.23;3.88;;;18.40;54.40;;;;;;4976688;28;20390;-74
2021/05/23 03:03:10;;;;;;;5.50;3.53;;;18.30;54.80;;;;;;4976747;28;20556;-74
2021/05/23 03:05:36;;;;;;;5.90;3.85;;;18.10;55.30;;;;;;4977791;28;20386;-81
2021/05/23 03:08:03;;;;;;;5.20;3.60;;;18.00;55.90;;;;;;4978735;28;20026;-82
2021/05/23 03:10:53;;;;;;;5.40;3.70;;;17.80;56.30;;;;;;4978426;28;20023;-82
2021/05/23 03:13:20;;;;;;;4.78;3.72;;;17.70;57.00;;;;;;4993227;28;20019;-81
2021/05/23 03:15:46;;;;;;;5.78;3.63;;;17.60;57.40;;;;;;4981158;28;20031;-82
2021/05/23 03:18:12;;;;;;;7.50;3.47;;;17.50;58.00;;;;;;4979178;28;20023;-82
2021/05/23 03:20:40;;;;;;;6.22;3.17;;;17.40;58.60;;;;;;4978697;28;20027;-82
2021/05/23 03:23:06;;;;;;;4.20;3.20;;;17.30;59.10;;;;;;4978245;28;20102;-82
2021/05/23 03:25:33;;;;;;;3.78;3.20;;;17.20;59.50;;;;;;4978264;28;20063;-82
2021/05/23 03:27:59;;;;;;;4.32;3.13;;;17.10;59.90;;;;;;4978125;28;20103;-82
2021/05/23 03:30:32;;;;;;;5.75;3.17;;;17.00;60.20;;;;;;5009319;28;20066;-82
2021/05/23 03:32:58;;;;;;;8.07;3.45;;;17.00;60.80;;;;;;4978729;28;20035;-82
2021/05/23 03:35:24;;;;;;;4.15;3.28;;;16.90;61.20;;;;;;4978424;28;20038;-84
2021/05/23 03:37:50;;;;;;;7.18;3.40;;;16.90;61.70;;;;;;4978070;28;20465;-85
2021/05/23 03:40:17;;;;;;;7.03;3.63;;;16.80;62.10;;;;;;4978244;28;20015;-84
2021/05/23 03:42:47;;;;;;;10.13;3.47;;;16.80;62.40;;;;;;4978466;28;20029;-83
2021/05/23 03:45:14;;;;;;;6.13;3.30;;;16.70;62.80;;;;;;5009200;28;20026;-84
2021/05/23 03:47:40;;;;;;;5.82;3.42;;;16.70;62.90;;;;;;4993395;28;20034;-83
2021/05/23 03:50:09;;;;;;;5.97;3.17;;;16.60;63.00;;;;;;4992315;28;20066;-83
2021/05/23 03:52:35;;;;;;;5.75;3.83;;;16.60;63.00;;;;;;4978237;28;20031;-83
2021/05/23 03:55:01;;;;;;;5.25;3.22;;;16.60;63.10;;;;;;4977890;28;20022;-83
2021/05/23 03:57:26;;;;;;;7.43;3.40;;;16.50;63.20;;;;;;4976900;28;20098;-83
2021/05/23 03:59:52;;;;;;;6.75;3.53;;;16.50;63.90;;;;;;4978259;28;20369;-83
2021/05/23 04:02:18;;;;;;;5.07;4.30;;;16.40;63.50;;;;;;4977954;28;20027;-83
2021/05/23 04:04:48;;;;;;;7.57;3.65;;;16.50;63.80;;;;;;4977807;28;20164;-82
2021/05/23 04:07:16;;;;;;;4.53;3.63;;;16.40;64.10;;;;;;4977600;28;20105;-74
2021/05/23 04:09:45;;;;;;;5.13;3.75;;;16.40;64.50;;;;;;4975668;28;20045;-76
2021/05/23 04:12:16;;;;;;;8.77;4.05;;;16.40;64.70;;;;;;5007133;28;20353;-75
2021/05/23 04:14:42;;;;;;;7.75;3.90;;;16.50;65.30;;;;;;4975890;28;20015;-75
2021/05/23 04:17:08;;;;;;;4.30;3.53;;;16.50;65.70;;;;;;4975737;28;20713;-76
2021/05/23 04:19:35;;;;;;;5.75;4.38;;;16.60;65.80;;;;;;4975665;28;20102;-75
2021/05/23 04:22:04;;;;;;;10.40;4.10;;;16.70;66.20;;;;;;4975449;28;20034;-76
2021/05/23 04:24:34;;;;;;;7.78;4.05;;;16.80;66.70;;;;;;4975389;28;20031;-76
2021/05/23 04:27:00;;;;;;;7.85;3.70;;;17.00;66.80;;;;;;4975316;28;20030;-76
2021/05/23 04:29:26;;;;;;;5.47;3.22;;;17.10;66.50;;;;;;4975050;28;20049;-74
2021/05/23 04:31:52;;;;;;;7.80;4.22;;;17.30;66.50;;;;;;4975595;28;20038;-74
2021/05/23 04:34:18;;;;;;;7.20;4.10;;;17.40;66.30;;;;;;4975909;28;20062;-76
2021/05/23 04:36:43;;;;;;;4.03;3.47;;;17.60;66.70;;;;;;4975308;28;20094;-75
2021/05/23 04:39:09;;;;;;;7.18;4.18;;;17.80;65.80;;;;;;4974966;28;20030;-75
2021/05/23 04:41:35;;;;;;;8.32;4.50;;;18.10;65.70;;;;;;4974992;28;20030;-76
2021/05/23 04:44:01;;;;;;;9.70;3.92;;;18.50;65.90;;;;;;5006228;28;20113;-76
2021/05/23 04:46:26;;;;;;;8.80;4.43;;;19.10;65.00;;;;;;4974823;28;20453;-75
2021/05/23 04:48:52;;;;;;;10.68;4.40;;;19.60;63.80;;;;;;4974765;28;20031;-75
2021/05/23 04:51:18;;;;;;;6.47;3.65;;;20.00;62.80;;;;;;4974844;28;20030;-75
2021/05/23 04:53:44;;;;;;;6.82;4.07;;;20.30;61.80;;;;;;4974600;28;20023;-75
2021/05/23 04:56:09;;;;;;;8.68;4.30;;;20.60;60.80;;;;;;4973326;28;20499;-75
2021/05/23 04:58:35;;;;;;;8.07;3.75;;;20.60;60.20;;;;;;4974630;28;20079;-76
2021/05/23 05:01:01;;;;;;;7.50;3.60;;;20.70;59.90;;;;;;4974675;28;20034;-75
2021/05/23 05:03:26;;;;;;;13.55;4.40;;;20.80;59.70;;;;;;4974661;28;20030;-74
2021/05/23 05:05:52;;;;;;;7.07;4.05;;;21.00;59.60;;;;;;4974416;28;20041;-74
2021/05/23 05:08:18;;;;;;;10.27;4.25;;;21.10;59.50;;;;;;4974193;28;20030;-75
2021/05/23 05:10:43;;;;;;;6.80;3.80;;;21.30;59.20;;;;;;5005684;28;20033;-75
2021/05/23 05:13:09;;;;;;;8.05;4.00;;;21.40;58.80;;;;;;4974530;28;20049;-76
2021/05/23 05:15:35;;;;;;;7.60;4.10;;;21.70;58.60;;;;;;4974716;28;20015;-74
2021/05/23 05:18:00;;;;;;;6.45;3.47;;;22.10;58.30;;;;;;4974313;28;20037;-76
2021/05/23 05:20:27;;;;;;;10.10;3.63;;;22.50;57.30;;;;;;4974377;28;20117;-75
2021/05/23 05:22:53;;;;;;;7.03;4.22;;;22.70;56.70;;;;;;4974145;28;20413;-75
2021/05/23 05:25:19;;;;;;;6.95;3.53;;;23.00;56.70;;;;;;4974115;28;20027;-75
2021/05/23 05:27:45;;;;;;;14.48;4.72;;;23.30;55.20;;;;;;4974403;28;20022;-74
2021/05/23 05:30:12;;;;;;;11.27;3.83;;;23.60;54.60;;;;;;4973757;28;20401;-77
2021/05/23 05:32:37;;;;;;;6.93;3.15;;;24.20;54.00;;;;;;4974163;28;20102;-77
2021/05/23 05:35:04;;;;;;;6.88;3.67;;;24.70;53.20;;;;;;5005461;28;20134;-75
2021/05/23 05:37:30;;;;;;;6.55;3.55;;;25.10;52.00;;;;;;4974012;28;20019;-75
2021/05/23 05:39:56;;;;;;;7.30;3.78;;;25.70;52.00;;;;;;4973356;28;20023;-75
2021/05/23 05:42:21;;;;;;;6.40;3.35;;;26.80;51.10;;;;;;4973705;28;20035;-73
2021/05/23 05:44:48;;;;;;;5.22;3.10;;;28.10;49.60;;;;;;4972780;28;20035;-75
2021/05/23 05:47:14;;;;;;;9.77;3.40;;;29.10;47.90;;;;;;4971419;28;20478;-75
2021/05/23 05:49:40;;;;;;;5.65;3.45;;;29.90;46.20;;;;;;5004133;28;20085;-76
2021/05/23 05:52:06;;;;;;;6.45;3.45;;;30.50;44.90;;;;;;5006598;28;20030;-84
2021/05/23 05:54:33;;;;;;;5.53;3.50;;;31.00;43.80;;;;;;4982142;28;20521;-83
2021/05/23 05:57:00;;;;;;;11.18;3.33;;;31.10;43.40;;;;;;4986257;28;20070;-84
2021/05/23 05:59:26;;;;;;;6.25;3.38;;;30.70;42.50;;;;;;4983354;28;20123;-84
2021/05/23 06:01:52;;;;;;;5.65;3.42;;;30.20;42.70;;;;;;4975220;28;20377;-84
2021/05/23 06:04:20;;;;;;;6.18;3.63;;;29.90;43.30;;;;;;4976027;28;20031;-84
2021/05/23 06:06:46;;;;;;;15.05;4.20;;;30.20;43.60;;;;;;4975874;28;20027;-84
2021/05/23 06:09:12;;;;;;;12.15;8.82;;;30.90;43.40;;;;;;4973899;28;20045;-85
2021/05/23 06:11:40;;;;;;;4.65;2.90;;;31.50;42.60;;;;;;4976188;28;20030;-84
2021/05/23 06:14:06;;;;;;;4.95;3.22;;;32.10;41.70;;;;;;4971877;28;20027;-76
2021/05/23 06:16:32;;;;;;;6.85;3.20;;;32.20;41.10;;;;;;4973077;28;20057;-76
2021/05/23 06:18:57;;;;;;;9.82;3.30;;;32.10;40.50;;;;;;4973018;28;20022;-75
2021/05/23 06:21:23;;;;;;;3.60;2.58;;;32.10;40.50;;;;;;4972675;28;20853;-76
2021/05/23 06:23:49;;;;;;;5.25;3.10;;;32.20;40.40;;;;;;4973084;28;20045;-76
2021/05/23 06:26:15;;;;;;;4.75;2.90;;;32.40;40.40;;;;;;4973150;28;20027;-75
2021/05/23 06:28:42;;;;;;;4.13;2.58;;;32.70;40.30;;;;;;4972818;28;20075;-76
2021/05/23 06:31:08;;;;;;;8.23;3.30;;;33.50;39.90;;;;;;4973095;28;20019;-76
2021/05/23 06:33:34;;;;;;;5.25;3.08;;;34.30;39.00;;;;;;4972740;28;20030;-76
2021/05/23 06:36:00;;;;;;;8.35;3.60;;;34.30;38.10;;;;;;4973232;28;20023;-83
2021/05/23 06:38:26;;;;;;;9.02;3.30;;;33.90;37.60;;;;;;4971957;28;20026;-75
2021/05/23 06:40:51;;;;;;;7.72;3.42;;;34.10;38.00;;;;;;4973671;28;20031;-83
2021/05/23 06:43:17;;;;;;;4.28;3.92;;;34.40;37.70;;;;;;4974802;28;20023;-83
2021/05/23 06:45:43;;;;;;;7.47;2.90;;;34.90;37.70;;;;;;4974488;28;20030;-85
2021/05/23 06:48:09;;;;;;;4.38;3.38;;;35.60;37.40;;;;;;4973921;28;20117;-84
2021/05/23 06:50:37;;;;;;;4.97;2.63;;;36.40;36.60;;;;;;4973877;28;20026;-85
2021/05/23 06:53:03;;;;;;;8.32;3.00;;;37.20;35.90;;;;;;4974411;28;20026;-85
2021/05/23 06:55:29;;;;;;;7.50;3.38;;;37.90;35.30;;;;;;4974468;28;20531;-85
2021/05/23 06:57:54;;;;;;;6.22;3.00;;;38.50;34.90;;;;;;4973532;28;20118;-84
2021/05/23 07:00:21;;;;;;;7.88;2.97;;;39.00;34.40;;;;;;4973468;28;20037;-85
2021/05/23 07:02:47;;;;;;;6.85;2.83;;;39.30;33.80;;;;;;4977574;28;20038;-84
2021/05/23 07:05:13;;;;;;;6.57;2.75;;;39.50;33.40;;;;;;4994613;28;20035;-84
2021/05/23 07:07:39;;;;;;;3.90;2.90;;;39.80;33.20;;;;;;4978884;28;20505;-85
2021/05/23 07:10:08;;;;;;;5.07;2.55;;;40.10;33.00;;;;;;4974247;28;20138;-85
2021/05/23 07:12:34;;;;;;;11.07;4.47;;;40.30;32.70;;;;;;4972859;28;20042;-85
2021/05/23 07:15:00;;;;;;;7.13;3.45;;;40.50;32.70;;;;;;4977295;28;20023;-83
2021/05/23 07:17:26;;;;;;;5.28;3.17;;;40.70;32.50;;;;;;4977224;28;20019;-85
2021/05/23 07:19:51;;;;;;;5.30;2.80;;;40.80;32.40;;;;;;4974751;28;20026;-85
2021/05/23 07:22:18;;;;;;;7.88;3.00;;;41.00;32.50;;;;;;4975107;28;20033;-86
2021/05/23 07:24:44;;;;;;;6.32;2.47;;;41.10;32.10;;;;;;4974351;28;20029;-84
2021/05/23 07:27:10;;;;;;;5.30;2.83;;;41.20;32.00;;;;;;4977087;28;20418;-86
2021/05/23 07:29:36;;;;;;;5.68;2.70;;;40.90;31.80;;;;;;4977698;28;20049;-83
2021/05/23 07:32:02;;;;;;;4.47;3.03;;;40.30;31.80;;;;;;4995304;28;20035;-83
2021/05/23 07:34:28;;;;;;;3.17;2.33;;;39.70;32.00;;;;;;4990236;28;20026;-84
2021/05/23 07:36:55;;;;;;;4.55;2.53;;;39.20;32.30;;;;;;4978235;28;20109;-84
2021/05/23 07:39:21;;;;;;;3.00;2.75;;;38.50;32.50;;;;;;4983045;28;20039;-83
2021/05/23 07:41:47;;;;;;;7.07;2.92;;;38.10;32.90;;;;;;4986023;28;20046;-86
2021/05/23 07:44:12;;;;;;;4.10;2.55;;;37.90;33.00;;;;;;4980888;28;20033;-81
2021/05/23 07:46:38;;;;;;;8.10;2.50;;;37.80;33.10;;;;;;4986444;28;20034;-82
2021/05/23 07:49:04;;;;;;;3.83;2.67;;;37.60;32.90;;;;;;4988644;28;20030;-83
2021/05/23 07:51:30;;;;;;;2.45;1.90;;;37.70;33.10;;;;;;4981238;28;20031;-85
2021/05/23 07:53:55;;;;;;;7.63;2.33;;;37.90;32.60;;;;;;4978140;28;20034;-85
2021/05/23 07:56:21;;;;;;;2.72;2.13;;;38.00;31.90;;;;;;4977659;28;20034;-84
2021/05/23 07:58:47;;;;;;;4.63;1.98;;;37.70;31.70;;;;;;4977965;28;20369;-84
2021/05/23 08:01:13;;;;;;;4.97;2.20;;;37.50;32.20;;;;;;4975970;28;20580;-85
2021/05/23 08:03:40;;;;;;;8.40;2.75;;;37.20;32.10;;;;;;4976494;28;20029;-85
2021/05/23 08:06:08;;;;;;;4.82;2.58;;;36.60;32.40;;;;;;4976930;28;20037;-85
2021/05/23 08:08:33;;;;;;;3.67;2.60;;;36.10;33.10;;;;;;4977175;28;20019;-85
2021/05/23 08:10:59;;;;;;;11.10;2.85;;;35.50;33.40;;;;;;4977046;28;20023;-85
2021/05/23 08:13:25;;;;;;;12.32;2.65;;;35.00;34.00;;;;;;4975611;28;20023;-85
2021/05/23 08:15:51;;;;;;;6.28;2.53;;;34.70;34.50;;;;;;4983194;28;20102;-84
2021/05/23 08:18:19;;;;;;;4.43;2.42;;;34.30;34.60;;;;;;4981358;28;20030;-85
2021/05/23 08:20:46;;;;;;;4.22;2.13;;;34.30;35.30;;;;;;4976162;28;20490;-84
2021/05/23 08:23:11;;;;;;;5.85;2.22;;;34.40;35.90;;;;;;4976717;28;20027;-84
2021/05/23 08:25:37;;;;;;;7.95;2.50;;;34.30;35.00;;;;;;4973623;28;20030;-86
2021/05/23 08:28:03;;;;;;;9.43;2.90;;;34.10;35.00;;;;;;4976748;28;20378;-83
2021/05/23 08:30:29;;;;;;;7.45;2.42;;;34.00;35.40;;;;;;4976630;28;20026;-84
2021/05/23 08:32:54;;;;;;;9.77;2.78;;;33.60;35.50;;;;;;4976658;28;20030;-85
2021/05/23 08:35:20;;;;;;;2.80;2.20;;;33.40;35.90;;;;;;4977017;28;20030;-85
2021/05/23 08:37:46;;;;;;;5.95;2.30;;;33.20;35.60;;;;;;4976576;28;20050;-85
2021/05/23 08:40:12;;;;;;;5.70;2.85;;;32.90;35.30;;;;;;4976478;28;20041;-83
2021/05/23 08:42:38;;;;;;;9.43;2.90;;;32.60;35.60;;;;;;4974232;28;20142;-84
2021/05/23 08:45:06;;;;;;;7.07;5.47;;;32.20;36.10;;;;;;4976376;28;20446;-85
2021/05/23 08:47:38;;;;;;;6.80;2.30;;;32.10;36.10;;;;;;4976236;28;20059;-85
2021/05/23 08:50:05;;;;;;;4.15;2.30;;;32.10;35.70;;;;;;4979927;28;20034;-84
2021/05/23 08:52:31;;;;;;;4.97;2.22;;;32.30;35.70;;;;;;4992503;28;20023;-76
2021/05/23 08:54:58;;;;;;;6.55;2.30;;;32.50;36.00;;;;;;4974056;28;20022;-76
2021/05/23 08:57:23;;;;;;;10.13;2.72;;;32.70;36.40;;;;;;4974438;28;20102;-77
2021/05/23 08:59:50;;;;;;;7.97;2.28;;;32.90;36.20;;;;;;4973976;28;20121;-76
2021/05/23 09:02:15;;;;;;;6.95;2.70;;;33.00;35.80;;;;;;4974148;28;20050;-77
2021/05/23 09:04:50;;;;;;;7.50;2.20;;;33.10;35.90;;;;;;4973886;28;20031;-75
2021/05/23 09:07:16;;;;;;;5.85;2.70;;;33.20;35.90;;;;;;4972224;28;20038;-77
2021/05/23 09:09:43;;;;;;;6.90;2.80;;;33.20;35.90;;;;;;4973875;28;20034;-76
2021/05/23 09:12:10;;;;;;;3.95;2.10;;;33.10;35.60;;;;;;4973970;28;20089;-77
2021/05/23 09:14:43;;;;;;;3.88;2.50;;;32.90;35.50;;;;;;4973922;28;20096;-77
2021/05/23 09:17:27;;;;;;;5.90;2.17;;;32.70;35.30;;;;;;4974246;28;20044;-76
2021/05/23 09:19:55;;;;;;;5.15;2.75;;;32.50;35.20;;;;;;4973889;28;20077;-77
2021/05/23 09:22:26;;;;;;;5.57;1.92;;;32.50;35.00;;;;;;4973842;28;20047;-76
2021/05/23 09:24:57;;;;;;;5.55;2.40;;;32.50;35.10;;;;;;4972402;28;20050;-76
2021/05/23 09:27:28;;;;;;;4.50;2.05;;;32.50;34.80;;;;;;4972697;28;20386;-76
2021/05/23 09:30:26;;;;;;;9.32;4.68;;;32.60;34.80;;;;;;4973384;28;20066;-76
2021/05/23 09:32:54;;;;;;;5.35;2.00;;;32.60;34.40;;;;;;4962394;28;20043;-75
2021/05/23 09:35:21;;;;;;;9.75;2.20;;;32.70;34.10;;;;;;4972542;28;20025;-76
2021/05/23 09:38:06;;;;;;;9.18;2.47;;;32.60;34.20;;;;;;4973679;28;20487;-75
2021/05/23 09:40:35;;;;;;;8.43;2.90;;;32.70;34.20;;;;;;4973071;28;20038;-76
2021/05/23 09:43:02;;;;;;;4.60;1.95;;;32.40;33.80;;;;;;4973277;28;20449;-76
2021/05/23 09:45:39;;;;;;;2.80;1.80;;;32.10;33.50;;;;;;4973149;28;20489;-77
2021/05/23 09:48:06;;;;;;;9.02;2.00;;;31.80;33.80;;;;;;4973482;28;20391;-76
2021/05/23 09:50:38;;;;;;;6.75;2.25;;;31.50;33.90;;;;;;4974051;28;20023;-83
2021/05/23 09:53:32;;;;;;;7.78;2.70;;;31.40;34.40;;;;;;4976360;28;20089;-78
2021/05/23 09:56:07;;;;;;;5.53;2.00;;;31.30;34.60;;;;;;4973148;28;20434;-79
2021/05/23 09:58:39;;;;;;;5.68;1.60;;;31.30;34.60;;;;;;4973842;28;20039;-82
2021/05/23 10:01:06;;;;;;;5.45;1.70;;;31.20;34.20;;;;;;4972904;28;20019;-81
2021/05/23 10:03:34;;;;;;;2.33;2.08;;;31.20;33.80;;;;;;4973600;28;20018;-82
2021/05/23 10:06:00;;;;;;;6.22;1.90;;;31.10;33.60;;;;;;4973436;28;20023;-82
2021/05/23 10:08:29;;;;;;;5.63;1.52;;;31.00;34.00;;;;;;4978456;28;20027;-81
2021/05/23 10:10:55;;;;;;;4.93;1.35;;;30.90;33.90;;;;;;4976355;28;20026;-81
2021/05/23 10:13:23;;;;;;;5.65;3.25;;;30.70;33.80;;;;;;4973770;28;20031;-81
2021/05/23 10:15:49;;;;;;;3.70;2.00;;;30.50;34.00;;;;;;4972008;28;20359;-81
2021/05/23 10:18:15;;;;;;;3.00;1.85;;;30.40;34.70;;;;;;4972944;28;20037;-82
2021/05/23 10:20:42;;;;;;;7.55;2.08;;;30.40;34.90;;;;;;4973115;28;20069;-81
2021/05/23 10:23:14;;;;;;;1.65;1.45;;;30.40;34.60;;;;;;4972976;28;20077;-79
2021/05/23 10:25:48;;;;;;;2.70;1.40;;;30.40;34.70;;;;;;4972908;28;20097;-82
2021/05/23 10:28:15;;;;;;;4.28;1.70;;;30.30;34.30;;;;;;4973297;28;20787;-80
2021/05/23 10:30:56;;;;;;;4.20;1.75;;;30.20;34.40;;;;;;4973226;28;20034;-80
2021/05/23 10:33:23;;;;;;;2.67;2.20;;;30.00;34.70;;;;;;4973854;28;20035;-80
2021/05/23 10:35:51;;;;;;;6.55;4.63;;;29.80;35.00;;;;;;4974997;28;20470;-83
2021/05/23 10:38:21;;;;;;;3.35;1.90;;;29.70;35.40;;;;;;4974563;28;20037;-82
2021/05/23 10:40:57;;;;;;;5.30;2.15;;;29.60;35.40;;;;;;4975107;28;20482;-82
2021/05/23 10:43:28;;;;;;;5.50;2.00;;;29.60;35.20;;;;;;4984122;28;20027;-82
2021/05/23 10:46:06;;;;;;;5.43;2.05;;;29.40;35.00;;;;;;4982221;28;20545;-82
2021/05/23 10:48:32;;;;;;;5.85;2.10;;;29.40;35.50;;;;;;4975836;28;20046;-71
2021/05/23 10:50:58;;;;;;;2.90;1.73;;;29.40;35.70;;;;;;4972658;28;20031;-72
2021/05/23 10:53:34;;;;;;;4.07;1.55;;;29.40;35.70;;;;;;4972628;28;20030;-73
2021/05/23 10:55:59;;;;;;;5.85;2.10;;;29.30;35.70;;;;;;4971137;28;20443;-73
2021/05/23 10:58:27;;;;;;;10.75;8.10;;;29.40;36.10;;;;;;4972332;28;20058;-72
2021/05/23 11:00:56;;;;;;;3.58;1.80;;;29.40;36.30;;;;;;4972341;28;20050;-72
2021/05/23 11:03:24;;;;;;;2.40;2.00;;;29.30;36.00;;;;;;4972356;28;20069;-72
2021/05/23 11:06:00;;;;;;;3.35;2.20;;;29.30;35.80;;;;;;4972015;28;20106;-74
2021/05/23 11:08:31;;;;;;;3.05;2.00;;;29.00;35.80;;;;;;4976293;28;20503;-73
2021/05/23 11:10:57;;;;;;;4.55;1.90;;;28.80;35.60;;;;;;4976557;28;20027;-73
2021/05/23 11:13:26;;;;;;;4.85;2.00;;;28.60;35.70;;;;;;4976531;28;20035;-72
2021/05/23 11:15:52;;;;;;;2.60;1.55;;;28.50;36.10;;;;;;4976286;28;20026;-72
2021/05/23 11:18:27;;;;;;;3.85;1.70;;;28.30;35.80;;;;;;4976358;28;20086;-74
2021/05/23 11:21:17;;;;;;;2.33;2.00;;;28.30;36.20;;;;;;4976025;28;20023;-72
2021/05/23 11:23:47;;;;;;;6.43;2.63;;;28.30;36.40;;;;;;4975673;28;20045;-74
2021/05/23 11:26:15;;;;;;;5.40;2.30;;;28.10;36.30;;;;;;4976104;28;20038;-74
2021/05/23 11:28:52;;;;;;;8.77;2.38;;;27.80;36.50;;;;;;4975537;28;20050;-73
2021/05/23 11:31:30;;;;;;;2.75;1.80;;;27.80;36.80;;;;;;4975985;28;20466;-74
2021/05/23 11:33:56;;;;;;;3.00;1.60;;;27.80;36.60;;;;;;4975693;28;20126;-76
2021/05/23 11:36:24;;;;;;;3.67;1.58;;;27.90;36.10;;;;;;4976146;28;20426;-73
2021/05/23 11:38:53;;;;;;;4.50;2.00;;;27.90;36.00;;;;;;4977347;28;20389;-84
2021/05/23 11:41:30;;;;;;;3.97;1.27;;;27.90;36.10;;;;;;4978323;28;20022;-84
2021/05/23 11:43:58;;;;;;;3.78;1.75;;;28.00;36.20;;;;;;4977503;28;20018;-85
2021/05/23 11:46:25;;;;;;;5.07;1.70;;;28.00;36.60;;;;;;4977125;28;20164;-84
2021/05/23 11:48:52;;;;;;;6.28;1.98;;;28.00;36.40;;;;;;4976809;28;20359;-84
2021/05/23 11:51:23;;;;;;;8.15;2.28;;;27.80;36.30;;;;;;4977168;28;20026;-83
2021/05/23 11:53:51;;;;;;;4.10;1.73;;;27.70;36.60;;;;;;4976948;28;20066;-82
2021/05/23 11:56:25;;;;;;;3.20;2.95;;;27.60;36.60;;;;;;4977043;28;20034;-81
2021/05/23 11:58:56;;;;;;;5.70;2.50;;;27.60;36.60;;;;;;4977280;28;20113;-82
2021/05/23 12:01:22;;;;;;;2.97;1.75;;;27.50;36.10;;;;;;4978877;28;20022;-82
2021/05/23 12:04:15;;;;;;;3.40;2.20;;;27.50;36.10;;;;;;4980833;28;20395;-82
2021/05/23 12:06:46;;;;;;;2.58;2.03;;;27.40;36.10;;;;;;4973823;28;20042;-76
2021/05/23 12:09:23;;;;;;;5.43;1.97;;;27.40;35.40;;;;;;4973942;28;20038;-76
2021/05/23 12:11:57;;;;;;;3.58;1.80;;;27.30;34.90;;;;;;4975280;28;20568;-76
2021/05/23 12:14:32;;;;;;;2.88;1.55;;;27.40;35.20;;;;;;4975509;28;20100;-72
2021/05/23 12:17:05;;;;;;;3.03;1.92;;;27.30;34.80;;;;;;4976038;28;20023;-81
2021/05/23 12:19:48;;;;;;;3.00;1.77;;;27.30;35.30;;;;;;4975733;28;20454;-79
2021/05/23 12:22:38;;;;;;;3.33;1.80;;;27.30;35.50;;;;;;4977979;28;20042;-82
2021/05/23 12:25:04;;;;;;;4.68;1.70;;;27.30;35.50;;;;;;4976476;28;20019;-82
2021/05/23 12:27:34;;;;;;;3.05;2.00;;;27.20;35.70;;;;;;4974527;28;20376;-83
2021/05/23 12:30:15;;;;;;;4.55;2.15;;;27.20;36.00;;;;;;4978345;28;20051;-83
2021/05/23 12:32:48;;;;;;;2.33;1.95;;;27.20;36.10;;;;;;4978009;28;20039;-82
2021/05/23 12:35:16;;;;;;;2.35;1.70;;;27.10;35.60;;;;;;4977857;28;20034;-82
2021/05/23 12:37:49;;;;;;;5.82;1.80;;;27.00;35.80;;;;;;4984683;28;20543;-82
2021/05/23 12:40:17;;;;;;;2.58;1.83;;;27.00;35.80;;;;;;4981227;28;20035;-85
2021/05/23 12:42:42;;;;;;;5.45;2.20;;;27.00;35.60;;;;;;4976801;28;20522;-86
2021/05/23 12:45:09;;;;;;;4.20;2.22;;;26.90;35.70;;;;;;4976622;28;20029;-86
2021/05/23 12:47:35;;;;;;;4.15;2.55;;;26.90;36.20;;;;;;4977768;28;20019;-85
2021/05/23 12:50:00;;;;;;;7.28;2.28;;;26.90;36.50;;;;;;4977951;28;20541;-85